createdAt,value
2023-09-15T00:01:41.370Z,11.00
2023-09-15T00:04:08.904Z,10.96
2023-09-15T00:06:37.133Z,10.88
2023-09-15T00:09:08.455Z,10.81
2023-09-15T00:11:41.374Z,10.79
2023-09-15T00:14:12.430Z,10.80
2023-09-15T00:16:44.231Z,10.85
2023-09-15T00:19:17.765Z,10.80
2023-09-15T00:21:45.912Z,10.78
2023-09-15T00:24:12.484Z,10.73
2023-09-15T00:26:39.807Z,10.74
2023-09-15T00:29:06.977Z,10.75
2023-09-15T00:31:34.134Z,10.69
2023-09-15T00:34:00.757Z,10.66
2023-09-15T00:36:27.383Z,10.62
2023-09-15T00:38:54.942Z,10.60
2023-09-15T00:41:21.940Z,10.59
2023-09-15T00:43:48.771Z,10.52
2023-09-15T00:46:15.731Z,10.45
2023-09-15T00:48:42.404Z,10.42
2023-09-15T00:51:09.198Z,10.43
2023-09-15T00:53:38.487Z,10.41
2023-09-15T00:56:06.762Z,10.43
2023-09-15T00:58:33.547Z,10.43
2023-09-15T01:01:01.615Z,10.43
2023-09-15T01:03:31.382Z,10.39
2023-09-15T01:05:58.140Z,10.37
2023-09-15T01:08:25.021Z,10.34
2023-09-15T01:10:51.803Z,10.36
2023-09-15T01:13:18.634Z,10.34
2023-09-15T01:16:06.133Z,10.27
2023-09-15T01:19:07.314Z,10.34
2023-09-15T01:21:58.507Z,10.35
2023-09-15T01:25:00.478Z,10.32
2023-09-15T01:27:52.312Z,10.29
2023-09-15T01:30:20.637Z,10.29
2023-09-15T01:32:51.038Z,10.28
2023-09-15T01:35:17.640Z,10.26
2023-09-15T01:37:44.159Z,10.28
2023-09-15T01:40:11.239Z,10.30
2023-09-15T01:42:41.310Z,10.30
2023-09-15T01:45:08.551Z,10.31
2023-09-15T01:47:37.980Z,10.31
2023-09-15T01:50:06.324Z,10.31
2023-09-15T01:52:35.025Z,10.29
2023-09-15T01:55:04.248Z,10.26
2023-09-15T01:57:31.013Z,10.26
2023-09-15T02:00:00.643Z,10.21
2023-09-15T02:02:27.817Z,10.25
2023-09-15T02:04:54.415Z,10.25
2023-09-15T02:07:21.387Z,10.18
2023-09-15T02:09:47.986Z,10.14
2023-09-15T02:12:14.530Z,10.10
2023-09-15T02:14:42.100Z,10.17
2023-09-15T02:17:09.062Z,10.11
2023-09-15T02:19:35.745Z,10.17
2023-09-15T02:22:02.336Z,10.19
2023-09-15T02:24:29.437Z,10.27
2023-09-15T02:26:57.997Z,10.38
2023-09-15T02:29:24.499Z,10.48
2023-09-15T02:31:52.280Z,10.57
2023-09-15T02:34:19.650Z,10.67
2023-09-15T02:36:46.126Z,10.70
2023-09-15T02:39:12.688Z,10.75
2023-09-15T02:41:39.298Z,10.84
2023-09-15T02:44:09.809Z,10.94
2023-09-15T02:46:37.272Z,10.95
2023-09-15T02:49:04.443Z,11.02
2023-09-15T02:51:33.321Z,11.01
2023-09-15T02:54:01.292Z,11.01
2023-09-15T02:56:28.730Z,11.12
2023-09-15T02:58:56.889Z,11.11
2023-09-15T03:01:23.534Z,11.09
2023-09-15T03:03:51.164Z,11.12
2023-09-15T03:06:18.466Z,11.13
2023-09-15T03:08:45.316Z,11.08
2023-09-15T03:11:16.036Z,11.18
2023-09-15T03:13:42.704Z,11.24
2023-09-15T03:16:11.078Z,11.21
2023-09-15T03:18:38.606Z,11.27
2023-09-15T03:21:06.591Z,11.26
2023-09-15T03:23:33.193Z,11.30
2023-09-15T03:26:04.167Z,11.31
2023-09-15T03:28:36.338Z,11.32
2023-09-15T03:31:06.889Z,11.30
2023-09-15T03:33:34.331Z,11.25
2023-09-15T03:36:01.379Z,11.25
2023-09-15T03:38:28.098Z,11.22
2023-09-15T03:40:54.640Z,11.20
2023-09-15T03:43:21.247Z,11.01
2023-09-15T03:45:49.030Z,10.96
2023-09-15T03:48:16.904Z,10.84
2023-09-15T03:50:43.873Z,10.76
2023-09-15T03:53:12.205Z,10.73
2023-09-15T03:55:39.105Z,10.61
2023-09-15T03:58:08.656Z,10.58
2023-09-15T04:00:35.381Z,10.41
2023-09-15T04:03:03.156Z,10.38
2023-09-15T04:05:30.113Z,10.29
2023-09-15T04:07:57.549Z,10.29
2023-09-15T04:10:26.353Z,10.21
2023-09-15T04:12:52.932Z,10.17
2023-09-15T04:15:19.470Z,10.13
2023-09-15T04:17:46.445Z,10.10
2023-09-15T04:20:13.341Z,10.10
2023-09-15T04:22:42.212Z,10.05
2023-09-15T04:25:09.430Z,9.98
2023-09-15T04:27:36.312Z,9.93
2023-09-15T04:30:04.802Z,9.94
2023-09-15T04:32:37.918Z,9.93
2023-09-15T04:35:06.794Z,9.86
2023-09-15T04:37:34.869Z,9.85
2023-09-15T04:40:03.792Z,9.89
2023-09-15T04:42:30.557Z,9.87
2023-09-15T04:44:57.280Z,9.81
2023-09-15T04:47:37.680Z,9.82
2023-09-15T04:50:15.598Z,9.83
2023-09-15T04:52:42.353Z,9.80
2023-09-15T04:55:09.719Z,9.86
2023-09-15T04:57:36.715Z,9.92
2023-09-15T05:00:05.956Z,9.89
2023-09-15T05:02:35.385Z,9.82
2023-09-15T05:05:01.992Z,9.80
2023-09-15T05:07:28.602Z,9.93
2023-09-15T05:09:55.250Z,9.93
2023-09-15T05:12:22.470Z,9.91
2023-09-15T05:14:49.076Z,9.95
2023-09-15T05:17:16.408Z,9.99
2023-09-15T05:19:43.264Z,9.97
2023-09-15T05:22:09.793Z,9.95
2023-09-15T05:24:36.425Z,10.05
2023-09-15T05:27:02.970Z,10.02
2023-09-15T05:29:29.753Z,10.11
2023-09-15T05:31:56.435Z,10.17
2023-09-15T05:34:23.145Z,10.17
2023-09-15T05:36:50.946Z,10.17
2023-09-15T05:39:17.817Z,10.18
2023-09-15T05:41:44.298Z,10.20
2023-09-15T05:44:10.792Z,10.24
2023-09-15T05:46:37.379Z,10.26
2023-09-15T05:49:04.140Z,10.25
2023-09-15T05:51:30.683Z,10.18
2023-09-15T05:53:57.230Z,10.13
2023-09-15T05:56:23.702Z,10.21
2023-09-15T05:58:50.495Z,10.27
2023-09-15T06:01:19.659Z,10.42
2023-09-15T06:03:46.900Z,10.56
2023-09-15T06:06:13.507Z,10.72
2023-09-15T06:08:40.079Z,10.89
2023-09-15T06:11:07.934Z,11.01
2023-09-15T06:13:37.024Z,11.17
2023-09-15T06:16:05.279Z,11.47
2023-09-15T06:18:32.357Z,11.63
2023-09-15T06:20:59.054Z,11.78
2023-09-15T06:23:25.944Z,12.01
2023-09-15T06:25:52.805Z,12.09
2023-09-15T06:28:22.054Z,12.19
2023-09-15T06:30:49.384Z,12.28
2023-09-15T06:33:16.056Z,12.37
2023-09-15T06:35:42.723Z,12.42
2023-09-15T06:38:11.892Z,12.56
2023-09-15T06:40:38.498Z,12.67
2023-09-15T06:43:07.457Z,12.70
2023-09-15T06:45:34.650Z,12.73
2023-09-15T06:48:01.234Z,12.75
2023-09-15T06:50:27.818Z,12.81
2023-09-15T06:52:54.407Z,12.92
2023-09-15T06:55:21.187Z,13.00
2023-09-15T06:57:47.929Z,13.04
2023-09-15T07:00:15.902Z,13.11
2023-09-15T07:02:42.473Z,13.14
2023-09-15T07:05:09.282Z,13.21
2023-09-15T07:07:35.945Z,13.30
2023-09-15T07:10:02.637Z,13.34
2023-09-15T07:12:29.242Z,13.43
2023-09-15T07:14:55.863Z,13.51
2023-09-15T07:17:23.285Z,13.60
2023-09-15T07:19:49.850Z,13.73
2023-09-15T07:22:16.744Z,13.86
2023-09-15T07:24:43.470Z,14.00
2023-09-15T07:27:10.700Z,14.20
2023-09-15T07:29:38.579Z,14.44
2023-09-15T07:32:06.124Z,14.71
2023-09-15T07:34:32.853Z,14.86
2023-09-15T07:37:01.533Z,15.03
2023-09-15T07:39:30.534Z,15.18
2023-09-15T07:41:57.053Z,15.22
2023-09-15T07:44:23.760Z,15.28
2023-09-15T07:46:50.444Z,15.37
2023-09-15T07:49:17.238Z,15.23
2023-09-15T07:51:44.811Z,15.27
2023-09-15T07:54:11.324Z,15.35
2023-09-15T07:56:38.077Z,15.38
2023-09-15T07:59:04.730Z,15.47
2023-09-15T08:01:31.351Z,15.43
2023-09-15T08:03:58.294Z,15.48
2023-09-15T08:06:26.926Z,15.53
2023-09-15T08:08:53.883Z,15.57
2023-09-15T08:11:20.350Z,15.58
2023-09-15T08:13:47.223Z,15.63
2023-09-15T08:16:14.064Z,15.57
2023-09-15T08:18:41.227Z,15.64
2023-09-15T08:21:07.716Z,15.66
2023-09-15T08:23:34.600Z,15.62
2023-09-15T08:26:02.349Z,15.56
2023-09-15T08:28:29.285Z,15.59
2023-09-15T08:30:55.908Z,15.63
2023-09-15T08:33:22.423Z,15.68
2023-09-15T08:35:48.936Z,15.77
2023-09-15T08:38:15.490Z,15.76
2023-09-15T08:40:55.342Z,15.79
2023-09-15T08:43:23.114Z,15.86
2023-09-15T08:45:50.681Z,15.90
2023-09-15T08:48:22.922Z,15.90
2023-09-15T08:50:52.542Z,15.97
2023-09-15T08:53:20.605Z,16.03
2023-09-15T08:55:47.800Z,16.10
2023-09-15T08:58:15.331Z,16.17
2023-09-15T09:00:48.364Z,16.22
2023-09-15T09:03:16.024Z,16.26
2023-09-15T09:05:47.585Z,16.36
2023-09-15T09:08:14.633Z,16.39
2023-09-15T09:10:41.332Z,16.50
2023-09-15T09:13:07.849Z,16.55
2023-09-15T09:15:34.728Z,16.56
2023-09-15T09:18:01.438Z,16.64
2023-09-15T09:20:29.106Z,16.73
2023-09-15T09:22:56.002Z,16.75
2023-09-15T09:25:29.845Z,16.81
2023-09-15T09:27:57.054Z,16.88
2023-09-15T09:30:26.179Z,16.97
2023-09-15T09:32:52.749Z,16.98
2023-09-15T09:35:19.294Z,17.04
2023-09-15T09:37:45.904Z,17.12
2023-09-15T09:40:12.733Z,17.18
2023-09-15T09:42:40.177Z,17.24
2023-09-15T09:45:07.287Z,17.27
2023-09-15T09:47:34.017Z,17.36
2023-09-15T09:50:06.165Z,17.37
2023-09-15T09:52:33.051Z,17.45
2023-09-15T09:55:04.818Z,17.63
2023-09-15T09:57:32.062Z,17.65
2023-09-15T09:59:58.711Z,17.64
2023-09-15T10:02:25.375Z,17.74
2023-09-15T10:04:51.929Z,17.80
2023-09-15T10:07:18.578Z,17.85
2023-09-15T10:09:47.093Z,17.93
2023-09-15T10:12:15.010Z,17.96
2023-09-15T10:14:41.893Z,18.01
2023-09-15T10:17:08.882Z,18.07
2023-09-15T10:19:35.666Z,18.09
2023-09-15T10:22:02.807Z,18.15
2023-09-15T10:24:30.207Z,18.18
2023-09-15T10:26:56.807Z,18.31
2023-09-15T10:29:31.599Z,18.46
2023-09-15T10:32:00.287Z,18.58
2023-09-15T10:34:26.953Z,18.64
2023-09-15T10:36:54.078Z,18.70
2023-09-15T10:39:20.692Z,18.79
2023-09-15T10:41:47.363Z,18.97
2023-09-15T10:44:14.526Z,19.21
2023-09-15T10:46:43.373Z,19.37
2023-09-15T10:49:18.254Z,19.63
2023-09-15T10:51:59.673Z,20.05
2023-09-15T10:54:30.910Z,20.43
2023-09-15T10:56:58.480Z,20.69
2023-09-15T10:59:26.276Z,21.04
2023-09-15T11:01:53.413Z,21.38
2023-09-15T11:04:22.311Z,21.66
2023-09-15T11:06:52.868Z,21.82
2023-09-15T11:09:21.280Z,22.06
2023-09-15T11:11:52.573Z,22.42
2023-09-15T11:14:25.650Z,22.74
2023-09-15T11:16:55.692Z,23.00
2023-09-15T11:19:25.297Z,23.15
2023-09-15T11:21:51.942Z,23.69
2023-09-15T11:24:19.565Z,23.98
2023-09-15T11:26:48.428Z,24.15
2023-09-15T11:29:16.894Z,24.03
2023-09-15T11:31:45.104Z,24.03
2023-09-15T11:34:17.122Z,24.22
2023-09-15T11:36:44.117Z,24.00
2023-09-15T11:39:13.874Z,24.34
2023-09-15T11:41:46.081Z,24.41
2023-09-15T11:44:12.918Z,24.57
2023-09-15T11:46:40.574Z,24.67
2023-09-15T11:49:07.621Z,25.07
2023-09-15T11:51:36.144Z,25.18
2023-09-15T11:54:04.742Z,25.26
2023-09-15T11:56:32.539Z,25.37
2023-09-15T11:59:00.258Z,25.53
2023-09-15T12:01:29.107Z,25.35
2023-09-15T12:03:55.866Z,25.66
2023-09-15T12:06:22.543Z,25.55
2023-09-15T12:08:51.440Z,25.91
2023-09-15T12:11:19.294Z,26.36
2023-09-15T12:13:53.028Z,26.43
2023-09-15T12:16:24.860Z,26.38
2023-09-15T12:18:54.450Z,26.11
2023-09-15T12:21:25.832Z,26.21
2023-09-15T12:23:55.444Z,26.66
2023-09-15T12:26:26.585Z,26.86
2023-09-15T12:28:55.458Z,26.22
2023-09-15T12:31:22.419Z,26.31
2023-09-15T12:33:54.669Z,26.37
2023-09-15T12:36:22.651Z,26.80
2023-09-15T12:38:52.357Z,26.94
2023-09-15T12:41:18.825Z,27.12
2023-09-15T12:43:45.595Z,27.21
2023-09-15T12:46:12.436Z,26.99
2023-09-15T12:48:39.222Z,27.11
2023-09-15T12:51:05.913Z,27.14
2023-09-15T12:53:32.648Z,27.06
2023-09-15T12:56:01.427Z,27.21
2023-09-15T12:58:28.199Z,27.16
2023-09-15T13:00:54.764Z,27.33
2023-09-15T13:03:23.401Z,27.58
2023-09-15T13:05:50.404Z,27.48
2023-09-15T13:08:17.708Z,27.44
2023-09-15T13:10:44.326Z,27.27
2023-09-15T13:13:12.008Z,27.68
2023-09-15T13:15:38.650Z,27.29
2023-09-15T13:18:05.531Z,27.26
2023-09-15T13:20:32.291Z,27.35
2023-09-15T13:22:58.737Z,27.44
2023-09-15T13:25:25.316Z,27.19
2023-09-15T13:27:51.789Z,27.14
2023-09-15T13:30:19.102Z,27.20
2023-09-15T13:32:45.738Z,27.15
2023-09-15T13:35:14.086Z,27.08
2023-09-15T13:37:41.307Z,27.57
2023-09-15T13:40:08.189Z,27.52
2023-09-15T13:42:36.479Z,27.59
2023-09-15T13:45:05.248Z,27.27
2023-09-15T13:47:36.933Z,27.18
2023-09-15T13:50:08.893Z,27.06
2023-09-15T13:52:35.505Z,27.18
2023-09-15T13:55:02.350Z,26.97
2023-09-15T13:57:30.156Z,26.84
2023-09-15T13:59:57.561Z,26.63
2023-09-15T14:02:27.697Z,26.65
2023-09-15T14:04:55.458Z,26.78
2023-09-15T14:07:22.191Z,26.95
2023-09-15T14:09:48.752Z,26.90
2023-09-15T14:12:15.918Z,27.23
2023-09-15T14:14:42.578Z,27.24
2023-09-15T14:17:09.290Z,27.19
2023-09-15T14:19:36.262Z,27.30
2023-09-15T14:22:06.605Z,27.34
2023-09-15T14:24:36.149Z,26.85
2023-09-15T14:27:03.905Z,26.94
2023-09-15T14:29:31.372Z,27.00
2023-09-15T14:32:01.155Z,27.44
2023-09-15T14:34:28.300Z,27.30
2023-09-15T14:36:54.794Z,27.04
2023-09-15T14:39:21.339Z,27.04
2023-09-15T14:41:48.777Z,27.08
2023-09-15T14:44:20.555Z,26.86
2023-09-15T14:46:48.383Z,27.27
2023-09-15T14:49:15.759Z,27.17
2023-09-15T14:51:42.777Z,26.75
2023-09-15T14:54:09.568Z,27.05
2023-09-15T14:56:36.843Z,27.30
2023-09-15T14:59:03.647Z,27.29
2023-09-15T15:01:30.234Z,27.40
2023-09-15T15:03:57.090Z,27.09
2023-09-15T15:06:23.631Z,27.18
2023-09-15T15:08:50.571Z,27.36
2023-09-15T15:11:17.431Z,27.63
2023-09-15T15:13:44.017Z,27.63
2023-09-15T15:16:12.285Z,27.45
2023-09-15T15:18:39.338Z,27.24
2023-09-15T15:21:05.866Z,26.99
2023-09-15T15:23:32.446Z,27.35
2023-09-15T15:26:05.018Z,27.69
2023-09-15T15:28:32.245Z,27.84
2023-09-15T15:30:58.920Z,27.80
2023-09-15T15:33:25.921Z,27.99
2023-09-15T15:36:02.736Z,28.28
2023-09-15T15:38:29.622Z,28.67
2023-09-15T15:41:04.135Z,28.76
2023-09-15T15:43:31.510Z,28.74
2023-09-15T15:46:00.484Z,28.80
2023-09-15T15:48:29.798Z,28.97
2023-09-15T15:50:56.818Z,28.37
2023-09-15T15:53:23.458Z,28.55
2023-09-15T15:55:51.045Z,28.35
2023-09-15T15:58:17.975Z,27.95
2023-09-15T16:00:45.768Z,27.67
2023-09-15T16:03:12.472Z,27.86
2023-09-15T16:05:41.068Z,27.69
2023-09-15T16:08:07.906Z,27.83
2023-09-15T16:10:35.089Z,28.47
2023-09-15T16:13:02.483Z,29.04
2023-09-15T16:15:29.378Z,27.79
2023-09-15T16:17:58.724Z,26.64
2023-09-15T16:20:25.286Z,26.01
2023-09-15T16:22:51.816Z,25.47
2023-09-15T16:25:18.296Z,24.88
2023-09-15T16:27:44.805Z,24.70
2023-09-15T16:30:11.562Z,24.43
2023-09-15T16:32:38.491Z,24.28
2023-09-15T16:35:05.423Z,24.14
2023-09-15T16:37:32.071Z,23.80
2023-09-15T16:39:58.929Z,23.53
2023-09-15T16:42:25.624Z,23.38
2023-09-15T16:44:52.238Z,23.29
2023-09-15T16:47:20.649Z,23.30
2023-09-15T16:49:47.344Z,23.13
2023-09-15T16:52:13.846Z,23.02
2023-09-15T16:54:40.370Z,23.00
2023-09-15T16:57:06.891Z,22.86
2023-09-15T16:59:33.785Z,22.79
2023-09-15T17:02:01.449Z,22.74
2023-09-15T17:04:28.193Z,22.55
2023-09-15T17:06:54.900Z,22.55
2023-09-15T17:09:21.972Z,22.51
2023-09-15T17:11:48.497Z,22.32
2023-09-15T17:14:15.042Z,22.23
2023-09-15T17:16:41.670Z,22.15
2023-09-15T17:19:08.317Z,22.10
2023-09-15T17:21:35.006Z,22.10
2023-09-15T17:24:01.578Z,21.95
2023-09-15T17:26:41.969Z,21.81
2023-09-15T17:29:08.463Z,21.77
2023-09-15T17:31:34.951Z,21.54
2023-09-15T17:34:03.330Z,21.28
2023-09-15T17:36:30.122Z,21.10
2023-09-15T17:38:58.506Z,21.02
2023-09-15T17:41:25.646Z,20.97
2023-09-15T17:43:52.129Z,20.78
2023-09-15T17:46:18.667Z,20.70
2023-09-15T17:48:45.171Z,20.63
2023-09-15T17:51:11.698Z,20.52
2023-09-15T17:53:38.163Z,20.44
2023-09-15T17:56:04.752Z,20.31
2023-09-15T17:58:31.299Z,20.22
2023-09-15T18:00:57.942Z,20.18
2023-09-15T18:03:24.479Z,20.05
2023-09-15T18:05:51.007Z,19.97
2023-09-15T18:08:17.488Z,19.93
2023-09-15T18:10:44.050Z,19.92
2023-09-15T18:13:10.608Z,19.88
2023-09-15T18:15:37.370Z,19.80
2023-09-15T18:18:04.184Z,19.79
2023-09-15T18:20:30.774Z,19.63
2023-09-15T18:22:57.248Z,19.55
2023-09-15T18:25:23.886Z,19.54
2023-09-15T18:27:50.421Z,19.50
2023-09-15T18:30:17.194Z,19.46
2023-09-15T18:32:44.053Z,19.37
2023-09-15T18:35:11.215Z,19.19
2023-09-15T18:37:37.726Z,19.09
2023-09-15T18:40:04.691Z,19.14
2023-09-15T18:42:31.464Z,19.06
2023-09-15T18:44:57.930Z,19.01
2023-09-15T18:47:24.631Z,18.94
2023-09-15T18:49:51.159Z,18.83
2023-09-15T18:52:17.729Z,18.87
2023-09-15T18:54:47.491Z,18.71
2023-09-15T18:57:14.047Z,18.64
2023-09-15T18:59:40.536Z,18.54
2023-09-15T19:02:07.220Z,18.56
2023-09-15T19:04:33.732Z,18.52
2023-09-15T19:07:00.302Z,18.40
2023-09-15T19:09:27.181Z,18.37
2023-09-15T19:11:54.246Z,18.28
2023-09-15T19:14:20.791Z,18.22
2023-09-15T19:16:48.622Z,18.12
2023-09-15T19:19:15.231Z,18.08
2023-09-15T19:21:41.951Z,18.06
2023-09-15T19:24:08.542Z,18.05
2023-09-15T19:26:35.056Z,17.99
2023-09-15T19:29:01.695Z,17.95
2023-09-15T19:31:28.397Z,17.87
2023-09-15T19:33:55.180Z,17.76
2023-09-15T19:36:21.876Z,17.67
2023-09-15T19:38:48.839Z,17.72
2023-09-15T19:41:16.563Z,17.77
2023-09-15T19:43:43.107Z,17.79
2023-09-15T19:46:13.563Z,17.77
2023-09-15T19:48:41.023Z,17.74
2023-09-15T19:51:07.509Z,17.73
2023-09-15T19:53:33.994Z,17.65
2023-09-15T19:56:04.668Z,17.70
2023-09-15T19:58:31.202Z,17.72
2023-09-15T20:00:57.930Z,17.62
2023-09-15T20:03:24.597Z,17.56
2023-09-15T20:05:51.221Z,17.44
2023-09-15T20:08:17.760Z,17.44
2023-09-15T20:10:44.280Z,17.44
2023-09-15T20:13:10.788Z,17.36
2023-09-15T20:15:37.360Z,17.25
2023-09-15T20:18:04.209Z,17.14
2023-09-15T20:20:31.508Z,17.19
2023-09-15T20:22:58.533Z,17.21
2023-09-15T20:25:27.702Z,17.26
2023-09-15T20:27:54.706Z,17.30
2023-09-15T20:30:21.202Z,17.16
2023-09-15T20:32:47.720Z,17.19
2023-09-15T20:35:14.606Z,17.18
2023-09-15T20:37:41.366Z,17.21
2023-09-15T20:40:08.947Z,17.22
2023-09-15T20:42:35.424Z,17.14
2023-09-15T20:45:04.629Z,17.17
2023-09-15T20:47:32.235Z,17.11
2023-09-15T20:49:58.880Z,17.18
2023-09-15T20:52:25.384Z,17.03
2023-09-15T20:54:52.038Z,16.98
2023-09-15T20:57:18.686Z,16.87
2023-09-15T20:59:45.214Z,16.84
2023-09-15T21:02:11.782Z,16.96
2023-09-15T21:04:38.292Z,16.92
2023-09-15T21:07:04.963Z,16.84
2023-09-15T21:09:31.639Z,16.98
2023-09-15T21:11:58.148Z,17.04
2023-09-15T21:14:24.731Z,17.14
2023-09-15T21:16:51.559Z,17.13
2023-09-15T21:19:18.097Z,17.15
2023-09-15T21:21:44.659Z,17.15
2023-09-15T21:24:11.129Z,17.26
2023-09-15T21:26:38.746Z,17.33
2023-09-15T21:29:05.302Z,17.25
2023-09-15T21:31:32.832Z,17.31
2023-09-15T21:34:01.354Z,17.29
2023-09-15T21:36:28.737Z,17.28
2023-09-15T21:38:55.290Z,17.21
2023-09-15T21:41:24.693Z,17.14
2023-09-15T21:43:52.439Z,17.10
2023-09-15T21:46:19.225Z,17.13
2023-09-15T21:48:46.015Z,17.13
2023-09-15T21:51:12.668Z,17.06
2023-09-15T21:53:39.154Z,16.96
2023-09-15T21:56:05.667Z,16.83
2023-09-15T21:58:32.231Z,16.85
2023-09-15T22:00:58.760Z,16.83
2023-09-15T22:03:25.577Z,16.75
2023-09-15T22:05:53.733Z,16.71
2023-09-15T22:08:20.261Z,16.71
2023-09-15T22:10:46.833Z,16.65
2023-09-15T22:13:13.328Z,16.57
2023-09-15T22:15:40.751Z,16.68
2023-09-15T22:18:09.717Z,16.71
2023-09-15T22:20:36.212Z,16.76
2023-09-15T22:23:04.162Z,16.88
2023-09-15T22:25:30.737Z,16.88
2023-09-15T22:27:57.241Z,16.84
2023-09-15T22:30:24.384Z,16.71
2023-09-15T22:32:50.982Z,16.64
2023-09-15T22:35:17.587Z,16.58
2023-09-15T22:37:47.313Z,16.66
2023-09-15T22:40:15.249Z,16.67
2023-09-15T22:42:44.602Z,16.72
2023-09-15T22:45:19.215Z,16.70
2023-09-15T22:47:50.928Z,16.73
2023-09-15T22:50:19.170Z,16.73
2023-09-15T22:52:46.260Z,16.78
2023-09-15T22:55:22.364Z,16.83
2023-09-15T22:57:49.444Z,16.84
2023-09-15T23:00:18.035Z,16.83
2023-09-15T23:02:47.664Z,16.83
2023-09-15T23:05:14.344Z,16.81
2023-09-15T23:07:40.872Z,16.78
2023-09-15T23:10:08.363Z,16.81
2023-09-15T23:12:35.121Z,16.83
2023-09-15T23:15:02.192Z,16.74
2023-09-15T23:17:28.851Z,16.74
2023-09-15T23:19:58.513Z,16.75
2023-09-15T23:22:25.204Z,16.79
2023-09-15T23:24:52.654Z,16.81
2023-09-15T23:27:19.755Z,16.83
2023-09-15T23:29:46.651Z,16.83
2023-09-15T23:32:13.283Z,16.88
2023-09-15T23:34:40.225Z,16.85
2023-09-15T23:37:07.090Z,16.87
2023-09-15T23:39:36.204Z,16.88
2023-09-15T23:42:03.192Z,16.92
2023-09-15T23:44:29.689Z,16.92
2023-09-15T23:46:56.391Z,16.88
2023-09-15T23:49:23.198Z,16.81
2023-09-15T23:51:49.852Z,16.80
2023-09-15T23:54:16.617Z,16.80
2023-09-15T23:56:44.116Z,16.81
2023-09-15T23:59:10.683Z,16.82
